Terminal Aerodrome Forecast
Issued by NWS Springfield, MO

Home | Current Version | Previous Version | Text Only | Print | Product List | Glossary On
Versions: 1 2 3 4 5 6 7 8 9 10 11 12
000
FTUS43 KSGF 262320
TAFSGF
TAF
KSGF 262320Z 2700/2724 16005KT P6SM BKN250
     FM271300 18006KT P6SM BKN200
     FM272000 16006KT P6SM BKN200
     FM272300 13007KT P6SM BKN200=

USA.gov is the U.S. government's official web portal to all federal, state and local government web resources and services.